createdAt,value
2018-01-25T00:00:04.537Z,7.77
2018-01-25T00:02:32.914Z,7.63
2018-01-25T00:05:01.320Z,7.40
2018-01-25T00:07:29.683Z,6.77
2018-01-25T00:09:58.031Z,7.20
2018-01-25T00:12:26.450Z,7.00
2018-01-25T00:14:54.800Z,6.90
2018-01-25T00:17:23.469Z,6.27
2018-01-25T00:19:51.985Z,7.33
2018-01-25T00:22:20.382Z,6.33
2018-01-25T00:24:48.756Z,6.10
2018-01-25T00:27:17.136Z,6.00
2018-01-25T00:29:45.484Z,6.00
2018-01-25T00:32:14.343Z,6.10
2018-01-25T00:34:43.095Z,6.10
2018-01-25T00:37:11.443Z,6.30
2018-01-25T00:39:39.801Z,6.00
2018-01-25T00:42:08.556Z,6.20
2018-01-25T00:44:36.904Z,5.63
2018-01-25T00:47:05.263Z,4.97
2018-01-25T00:49:33.624Z,5.17
2018-01-25T00:52:02.484Z,5.93
2018-01-25T00:54:30.836Z,4.97
2018-01-25T00:56:59.240Z,4.93
2018-01-25T00:59:27.600Z,5.83
2018-01-25T01:01:55.963Z,5.80
2018-01-25T01:04:24.333Z,4.87
2018-01-25T01:06:52.740Z,4.77
2018-01-25T01:09:21.101Z,4.63
2018-01-25T01:11:49.507Z,4.77
2018-01-25T01:14:17.975Z,4.43
2018-01-25T01:16:46.316Z,4.60
2018-01-25T01:19:14.679Z,5.20
2018-01-25T01:21:43.516Z,6.80
2018-01-25T01:24:11.892Z,5.03
2018-01-25T01:26:40.272Z,4.77
2018-01-25T01:29:08.648Z,4.37
2018-01-25T01:31:37.031Z,4.70
2018-01-25T01:34:05.407Z,3.83
2018-01-25T01:36:33.891Z,4.57
2018-01-25T01:39:02.279Z,4.50
2018-01-25T01:41:30.668Z,4.10
2018-01-25T01:43:59.040Z,4.27
2018-01-25T01:46:27.392Z,4.40
2018-01-25T01:48:55.785Z,4.47
2018-01-25T01:51:24.207Z,4.07
2018-01-25T01:53:53.052Z,4.33
2018-01-25T01:56:21.411Z,3.87
2018-01-25T01:58:49.763Z,3.80
2018-01-25T02:01:18.600Z,3.73
2018-01-25T02:03:46.980Z,4.33
2018-01-25T02:06:15.353Z,3.33
2018-01-25T02:08:43.735Z,3.50
2018-01-25T02:11:12.093Z,3.40
2018-01-25T02:13:40.483Z,3.63
2018-01-25T02:16:08.841Z,3.30
2018-01-25T02:18:37.197Z,3.73
2018-01-25T02:21:06.038Z,3.40
2018-01-25T02:23:34.417Z,3.40
2018-01-25T02:26:02.886Z,2.70
2018-01-25T02:28:31.248Z,4.13
2018-01-25T02:30:59.601Z,3.40
2018-01-25T02:33:28.364Z,3.40
2018-01-25T02:35:56.827Z,4.10
2018-01-25T02:38:25.212Z,2.83
2018-01-25T02:40:53.582Z,4.33
2018-01-25T02:43:21.931Z,3.30
2018-01-25T02:45:50.291Z,3.20
2018-01-25T02:48:19.139Z,4.10
2018-01-25T02:50:47.519Z,2.33
2018-01-25T02:53:15.884Z,3.03
2018-01-25T02:55:44.244Z,3.37
2018-01-25T02:58:12.643Z,3.07
2018-01-25T03:00:40.995Z,3.47
2018-01-25T03:03:09.370Z,3.27
2018-01-25T03:05:37.749Z,2.97
2018-01-25T03:08:06.165Z,2.90
2018-01-25T03:10:34.535Z,3.23
2018-01-25T03:13:02.916Z,2.97
2018-01-25T03:15:31.288Z,3.43
2018-01-25T03:17:59.872Z,2.53
2018-01-25T03:20:28.243Z,2.40
2018-01-25T03:22:56.611Z,2.87
2018-01-25T03:25:25.012Z,2.60
2018-01-25T03:27:53.481Z,3.60
2018-01-25T03:30:21.846Z,2.63
2018-01-25T03:32:50.218Z,3.03
2018-01-25T03:35:18.577Z,2.87
2018-01-25T03:37:47.328Z,3.30
2018-01-25T03:40:15.700Z,2.77
2018-01-25T03:42:44.063Z,2.63
2018-01-25T03:45:12.773Z,2.73
2018-01-25T03:47:41.128Z,2.30
2018-01-25T03:50:09.519Z,2.93
2018-01-25T03:52:37.912Z,3.20
2018-01-25T03:55:06.272Z,2.80
2018-01-25T03:57:34.660Z,2.30
2018-01-25T04:00:03.134Z,3.13
2018-01-25T04:02:31.485Z,2.67
2018-01-25T04:04:59.836Z,3.03
2018-01-25T04:07:28.594Z,3.53
2018-01-25T04:09:56.951Z,3.20
2018-01-25T04:12:25.319Z,3.50
2018-01-25T04:14:53.719Z,3.00
2018-01-25T04:17:22.067Z,2.73
2018-01-25T04:19:50.472Z,2.90
2018-01-25T04:22:18.819Z,3.10
2018-01-25T04:24:47.192Z,3.57
2018-01-25T04:27:15.554Z,3.53
2018-01-25T04:29:44.308Z,3.53
2018-01-25T04:32:12.769Z,3.57
2018-01-25T04:34:41.159Z,2.93
2018-01-25T04:37:09.544Z,3.20
2018-01-25T04:39:38.012Z,3.10
2018-01-25T04:42:06.365Z,3.20
2018-01-25T04:44:34.863Z,2.90
2018-01-25T04:47:03.216Z,3.00
2018-01-25T04:49:31.587Z,3.00
2018-01-25T04:51:59.945Z,3.30
2018-01-25T04:54:28.300Z,3.23
2018-01-25T04:56:56.804Z,2.80
2018-01-25T04:59:25.556Z,3.57
2018-01-25T05:01:53.932Z,3.20
2018-01-25T05:04:22.274Z,2.80
2018-01-25T05:06:50.627Z,2.40
2018-01-25T05:09:19.072Z,2.70
2018-01-25T05:11:47.427Z,2.40
2018-01-25T05:14:15.807Z,2.70
2018-01-25T05:16:45.948Z,2.53
2018-01-25T05:19:14.328Z,2.67
2018-01-25T05:21:42.696Z,3.00
2018-01-25T05:24:11.057Z,2.90
2018-01-25T05:26:39.426Z,3.07
2018-01-25T05:29:07.856Z,2.77
2018-01-25T05:31:36.208Z,2.53
2018-01-25T05:34:04.573Z,2.50
2018-01-25T05:36:32.916Z,2.50
2018-01-25T05:39:01.699Z,2.50
2018-01-25T05:41:30.157Z,2.50
2018-01-25T05:43:58.511Z,2.70
2018-01-25T05:46:27.000Z,2.50
2018-01-25T05:48:55.594Z,2.40
2018-01-25T05:51:23.960Z,2.60
2018-01-25T05:53:52.320Z,3.17
2018-01-25T05:56:20.729Z,3.17
2018-01-25T05:58:49.097Z,2.30
2018-01-25T06:01:17.447Z,2.00
2018-01-25T06:03:45.856Z,1.93
2018-01-25T06:06:14.212Z,2.50
2018-01-25T06:08:42.622Z,2.23
2018-01-25T06:11:10.992Z,1.77
2018-01-25T06:13:39.379Z,2.70
2018-01-25T06:16:07.853Z,2.67
2018-01-25T06:18:36.240Z,2.13
2018-01-25T06:21:04.566Z,2.10
2018-01-25T06:23:33.406Z,2.30
2018-01-25T06:26:01.937Z,2.50
2018-01-25T06:28:30.702Z,1.90
2018-01-25T06:30:59.163Z,1.90
2018-01-25T06:33:27.524Z,2.37
2018-01-25T06:35:55.875Z,2.30
2018-01-25T06:38:24.239Z,2.03
2018-01-25T06:40:53.003Z,2.80
2018-01-25T06:43:21.351Z,2.43
2018-01-25T06:45:49.715Z,2.50
2018-01-25T06:48:18.190Z,2.37
2018-01-25T06:50:46.532Z,2.37
2018-01-25T06:53:15.318Z,2.07
2018-01-25T06:55:43.668Z,2.67
2018-01-25T06:58:12.037Z,2.53
2018-01-25T07:00:40.397Z,2.60
2018-01-25T07:03:08.801Z,3.07
2018-01-25T07:05:37.174Z,2.90
2018-01-25T07:08:05.530Z,2.43
2018-01-25T07:10:33.920Z,2.70
2018-01-25T07:13:02.303Z,3.10
2018-01-25T07:15:30.694Z,3.20
2018-01-25T07:17:59.146Z,2.97
2018-01-25T07:20:27.499Z,2.53
2018-01-25T07:22:56.341Z,2.33
2018-01-25T07:25:24.707Z,4.50
2018-01-25T07:27:53.060Z,3.43
2018-01-25T07:30:21.493Z,2.80
2018-01-25T07:32:49.857Z,3.13
2018-01-25T07:35:18.240Z,2.73
2018-01-25T07:37:46.597Z,2.50
2018-01-25T07:40:14.989Z,2.60
2018-01-25T07:42:43.369Z,2.73
2018-01-25T07:45:11.737Z,3.30
2018-01-25T07:47:40.201Z,2.90
2018-01-25T07:50:08.608Z,2.67
2018-01-25T07:52:36.968Z,2.77
2018-01-25T07:55:05.683Z,2.97
2018-01-25T07:57:39.419Z,2.70
2018-01-25T08:00:08.572Z,2.90
2018-01-25T08:02:37.008Z,3.03
2018-01-25T08:05:05.752Z,3.63
2018-01-25T08:07:34.127Z,3.47
2018-01-25T08:10:02.600Z,5.03
2018-01-25T08:12:31.020Z,3.80
2018-01-25T08:14:59.462Z,4.07
2018-01-25T08:17:28.773Z,4.67
2018-01-25T08:19:57.239Z,3.73
2018-01-25T08:22:25.600Z,3.83
2018-01-25T08:24:53.996Z,3.03
2018-01-25T08:27:22.429Z,4.50
2018-01-25T08:29:51.180Z,2.23
2018-01-25T08:32:19.625Z,2.13
2018-01-25T08:34:48.026Z,2.10
2018-01-25T08:37:16.395Z,1.40
2018-01-25T08:39:45.532Z,1.67
2018-01-25T08:42:13.980Z,2.43
2018-01-25T08:44:42.352Z,1.57
2018-01-25T08:47:10.755Z,1.40
2018-01-25T08:49:39.144Z,1.10
2018-01-25T08:52:07.496Z,1.40
2018-01-25T08:54:35.852Z,1.07
2018-01-25T08:57:04.258Z,1.33
2018-01-25T08:59:32.672Z,2.00
2018-01-25T09:02:01.111Z,1.57
2018-01-25T09:04:29.487Z,1.37
2018-01-25T09:06:57.840Z,1.93
2018-01-25T09:09:26.207Z,2.07
2018-01-25T09:11:54.629Z,2.00
2018-01-25T09:14:23.028Z,1.70
2018-01-25T09:16:51.380Z,2.00
2018-01-25T09:19:19.773Z,1.40
2018-01-25T09:21:48.148Z,1.63
2018-01-25T09:24:16.535Z,1.53
2018-01-25T09:26:44.904Z,1.30
2018-01-25T09:29:13.286Z,2.10
2018-01-25T09:31:41.672Z,1.67
2018-01-25T09:34:10.047Z,2.20
2018-01-25T09:36:38.448Z,1.63
2018-01-25T09:39:06.818Z,2.63
2018-01-25T09:41:35.172Z,1.53
2018-01-25T09:44:03.551Z,1.50
2018-01-25T09:46:31.905Z,1.50
2018-01-25T09:49:00.308Z,1.40
2018-01-25T09:51:28.725Z,1.23
2018-01-25T09:53:57.041Z,1.40
2018-01-25T09:56:25.393Z,1.33
2018-01-25T09:58:54.156Z,1.37
2018-01-25T10:01:22.606Z,1.50
2018-01-25T10:03:51.047Z,0.80
2018-01-25T10:06:19.444Z,1.80
2018-01-25T10:08:47.858Z,1.93
2018-01-25T10:11:16.216Z,1.00
2018-01-25T10:13:44.568Z,1.03
2018-01-25T10:16:13.337Z,0.93
2018-01-25T10:18:42.081Z,1.20
2018-01-25T10:21:10.468Z,1.70
2018-01-25T10:23:39.367Z,0.93
2018-01-25T10:26:07.811Z,1.20
2018-01-25T10:28:36.190Z,1.30
2018-01-25T10:31:04.536Z,1.27
2018-01-25T10:33:33.283Z,1.20
2018-01-25T10:36:01.660Z,1.40
2018-01-25T10:38:30.040Z,1.27
2018-01-25T10:40:58.501Z,1.10
2018-01-25T10:43:26.855Z,1.30
2018-01-25T10:45:55.383Z,1.17
2018-01-25T10:48:23.750Z,1.50
2018-01-25T10:50:52.107Z,1.33
2018-01-25T10:53:20.488Z,1.67
2018-01-25T10:55:48.905Z,1.50
2018-01-25T10:58:17.279Z,1.67
2018-01-25T11:00:51.106Z,1.87
2018-01-25T11:03:19.452Z,1.27
2018-01-25T11:05:47.945Z,1.77
2018-01-25T11:08:16.317Z,1.80
2018-01-25T11:10:44.794Z,1.93
2018-01-25T11:13:13.144Z,1.60
2018-01-25T11:15:41.512Z,1.57
2018-01-25T11:18:10.278Z,1.23
2018-01-25T11:20:38.648Z,1.33
2018-01-25T11:23:07.083Z,2.10
2018-01-25T11:25:35.461Z,2.37
2018-01-25T11:28:03.972Z,3.60
2018-01-25T11:30:32.483Z,2.70
2018-01-25T11:33:00.833Z,2.87
2018-01-25T11:35:29.270Z,2.80
2018-01-25T11:37:57.619Z,2.20
2018-01-25T11:40:26.372Z,2.47
2018-01-25T11:42:54.754Z,2.30
2018-01-25T11:45:23.134Z,2.10
2018-01-25T11:47:51.519Z,3.07
2018-01-25T11:50:19.877Z,2.73
2018-01-25T11:52:48.259Z,2.60
2018-01-25T11:55:16.741Z,2.87
2018-01-25T11:57:45.232Z,2.50
2018-01-25T12:00:13.768Z,2.80
2018-01-25T12:02:42.180Z,2.43
2018-01-25T12:05:10.527Z,2.10
2018-01-25T12:07:38.892Z,2.13
2018-01-25T12:10:07.773Z,2.50
2018-01-25T12:12:36.628Z,2.10
2018-01-25T12:15:05.008Z,2.40
2018-01-25T12:17:33.366Z,2.07
2018-01-25T12:20:01.764Z,2.57
2018-01-25T12:22:30.122Z,2.27
2018-01-25T12:24:58.500Z,2.73
2018-01-25T12:27:26.870Z,4.10
2018-01-25T12:29:55.276Z,1.80
2018-01-25T12:32:23.691Z,3.00
2018-01-25T12:34:52.024Z,1.70
2018-01-25T12:37:20.411Z,1.60
2018-01-25T12:39:48.770Z,1.90
2018-01-25T12:42:17.164Z,1.70
2018-01-25T12:44:45.543Z,1.60
2018-01-25T12:47:14.206Z,2.10
2018-01-25T12:49:42.551Z,2.83
2018-01-25T12:52:11.320Z,2.30
2018-01-25T12:54:39.684Z,2.47
2018-01-25T12:57:08.056Z,3.60
2018-01-25T12:59:36.441Z,2.10
2018-01-25T13:02:04.837Z,2.33
2018-01-25T13:04:33.195Z,2.47
2018-01-25T13:07:01.572Z,2.03
2018-01-25T13:09:29.924Z,2.40
2018-01-25T13:11:58.290Z,1.73
2018-01-25T13:14:26.644Z,2.27
2018-01-25T13:16:55.032Z,2.33
2018-01-25T13:19:23.781Z,3.03
2018-01-25T13:21:52.144Z,4.37
2018-01-25T13:24:20.509Z,2.90
2018-01-25T13:26:48.855Z,2.00
2018-01-25T13:29:17.717Z,2.40
2018-01-25T13:31:46.065Z,3.27
2018-01-25T13:34:14.428Z,2.53
2018-01-25T13:36:42.796Z,2.67
2018-01-25T13:39:11.215Z,2.70
2018-01-25T13:41:39.724Z,2.80
2018-01-25T13:44:08.087Z,3.27
2018-01-25T13:46:36.436Z,3.10
2018-01-25T13:49:04.797Z,2.43
2018-01-25T13:51:33.157Z,2.33
2018-01-25T13:54:01.999Z,2.47
2018-01-25T13:56:30.457Z,2.00
2018-01-25T13:58:58.848Z,2.20
2018-01-25T14:01:27.242Z,2.10
2018-01-25T14:03:55.618Z,2.53
2018-01-25T14:06:23.987Z,2.37
2018-01-25T14:08:52.343Z,1.80
2018-01-25T14:11:20.693Z,1.77
2018-01-25T14:13:49.667Z,1.90
2018-01-25T14:16:17.992Z,2.80
2018-01-25T14:18:46.393Z,2.73
2018-01-25T14:21:14.748Z,2.30
2018-01-25T14:23:43.151Z,4.57
2018-01-25T14:26:11.507Z,5.90
2018-01-25T14:28:39.878Z,13.27
2018-01-25T14:31:08.294Z,17.60
2018-01-25T14:33:36.723Z,6.80
2018-01-25T14:36:05.015Z,3.70
2018-01-25T14:38:33.389Z,3.57
2018-01-25T14:41:01.745Z,3.20
2018-01-25T14:43:30.512Z,2.67
2018-01-25T14:45:58.869Z,2.77
2018-01-25T14:48:27.252Z,3.23
2018-01-25T14:50:55.616Z,3.27
2018-01-25T14:53:23.970Z,2.53
2018-01-25T14:55:52.390Z,3.20
2018-01-25T14:58:20.780Z,3.17
2018-01-25T15:00:49.161Z,3.80
2018-01-25T15:03:17.671Z,3.97
2018-01-25T15:05:46.760Z,4.20
2018-01-25T15:08:14.897Z,4.53
2018-01-25T15:10:43.249Z,4.10
2018-01-25T15:13:11.610Z,5.17
2018-01-25T15:15:39.971Z,4.40
2018-01-25T15:18:08.316Z,3.60
2018-01-25T15:20:36.676Z,4.07
2018-01-25T15:23:05.028Z,4.50
2018-01-25T15:25:38.860Z,5.20
2018-01-25T15:28:07.245Z,4.40
2018-01-25T15:30:35.613Z,4.63
2018-01-25T15:33:04.019Z,5.13
2018-01-25T15:35:32.419Z,6.10
2018-01-25T15:38:00.089Z,5.77
2018-01-25T15:40:28.533Z,4.90
2018-01-25T15:42:56.920Z,4.70
2018-01-25T15:45:25.283Z,4.77
2018-01-25T15:47:53.634Z,5.37
2018-01-25T15:50:22.053Z,4.53
2018-01-25T15:52:50.427Z,4.30
2018-01-25T15:55:18.780Z,4.80
2018-01-25T15:57:47.192Z,4.00
2018-01-25T16:00:15.543Z,3.40
2018-01-25T16:02:43.942Z,3.87
2018-01-25T16:05:12.322Z,4.53
2018-01-25T16:07:40.693Z,3.80
2018-01-25T16:10:09.139Z,3.97
2018-01-25T16:12:37.489Z,4.70
2018-01-25T16:15:05.976Z,4.70
2018-01-25T16:17:34.728Z,4.13
2018-01-25T16:20:03.101Z,5.60
2018-01-25T16:22:31.464Z,5.20
2018-01-25T16:24:59.815Z,4.70
2018-01-25T16:27:28.620Z,4.97
2018-01-25T16:29:57.050Z,4.40
2018-01-25T16:32:25.405Z,4.37
2018-01-25T16:34:53.758Z,4.23
2018-01-25T16:37:22.120Z,5.60
2018-01-25T16:39:50.930Z,5.50
2018-01-25T16:42:19.284Z,4.77
2018-01-25T16:44:47.636Z,5.93
2018-01-25T16:47:16.166Z,5.47
2018-01-25T16:49:44.577Z,5.47
2018-01-25T16:52:12.943Z,5.53
2018-01-25T16:54:41.304Z,5.17
2018-01-25T16:57:09.714Z,5.50
2018-01-25T16:59:38.076Z,4.77
2018-01-25T17:02:06.428Z,5.20
2018-01-25T17:04:34.816Z,5.67
2018-01-25T17:07:03.258Z,4.90
2018-01-25T17:09:31.784Z,4.90
2018-01-25T17:12:00.189Z,5.67
2018-01-25T17:14:28.551Z,5.57
2018-01-25T17:16:56.928Z,4.90
2018-01-25T17:19:25.279Z,6.10
2018-01-25T17:21:53.717Z,5.90
2018-01-25T17:24:22.092Z,6.13
2018-01-25T17:26:50.444Z,8.20
2018-01-25T17:29:18.823Z,7.30
2018-01-25T17:31:47.188Z,5.60
2018-01-25T17:34:15.568Z,5.70
2018-01-25T17:36:43.983Z,6.87
2018-01-25T17:39:12.361Z,6.03
2018-01-25T17:41:40.742Z,5.80
2018-01-25T17:44:09.219Z,6.33
2018-01-25T17:46:37.577Z,6.57
2018-01-25T17:49:05.948Z,8.07
2018-01-25T17:51:34.332Z,6.90
2018-01-25T17:54:02.709Z,7.30
2018-01-25T17:56:31.064Z,7.60
2018-01-25T17:58:59.577Z,7.53
2018-01-25T18:01:27.939Z,8.00
2018-01-25T18:03:56.299Z,7.30
2018-01-25T18:06:24.674Z,8.07
2018-01-25T18:08:53.507Z,8.20
2018-01-25T18:11:21.887Z,7.80
2018-01-25T18:13:50.996Z,8.40
2018-01-25T18:16:19.377Z,6.87
2018-01-25T18:18:47.762Z,7.40
2018-01-25T18:21:17.058Z,7.40
2018-01-25T18:23:45.417Z,8.20
2018-01-25T18:26:13.797Z,7.97
2018-01-25T18:28:42.157Z,9.47
2018-01-25T18:31:10.527Z,9.37
2018-01-25T18:33:38.903Z,8.53
2018-01-25T18:36:07.284Z,10.80
2018-01-25T18:38:35.651Z,7.80
2018-01-25T18:41:04.501Z,9.40
2018-01-25T18:43:32.971Z,8.13
2018-01-25T18:46:01.362Z,7.40
2018-01-25T18:48:29.828Z,7.40
2018-01-25T18:50:58.191Z,6.50
2018-01-25T18:53:26.613Z,6.10
2018-01-25T18:55:54.991Z,10.73
2018-01-25T18:58:23.444Z,10.37
2018-01-25T19:00:51.817Z,15.47
2018-01-25T19:03:20.190Z,10.30
2018-01-25T19:05:48.552Z,11.33
2018-01-25T19:08:16.956Z,7.43
2018-01-25T19:10:45.312Z,6.03
2018-01-25T19:13:13.661Z,6.03
2018-01-25T19:15:42.504Z,5.93
2018-01-25T19:18:10.871Z,5.20
2018-01-25T19:20:39.313Z,6.73
2018-01-25T19:23:08.147Z,5.80
2018-01-25T19:25:36.531Z,6.17
2018-01-25T19:28:04.915Z,6.40
2018-01-25T19:30:33.263Z,8.23
2018-01-25T19:33:01.636Z,7.53
2018-01-25T19:35:30.035Z,7.50
2018-01-25T19:37:58.388Z,6.67
2018-01-25T19:40:26.762Z,7.40
2018-01-25T19:42:55.181Z,8.70
2018-01-25T19:45:23.664Z,8.37
2018-01-25T19:47:52.016Z,8.40
2018-01-25T19:50:20.392Z,8.60
2018-01-25T19:52:48.796Z,8.10
2018-01-25T19:55:17.176Z,10.20
2018-01-25T19:57:45.721Z,8.60
2018-01-25T20:00:14.481Z,8.40
2018-01-25T20:02:42.927Z,10.00
2018-01-25T20:05:11.288Z,9.97
2018-01-25T20:07:39.865Z,10.37
2018-01-25T20:10:08.323Z,11.60
2018-01-25T20:12:37.099Z,11.40
2018-01-25T20:15:05.938Z,13.10
2018-01-25T20:17:34.304Z,12.67
2018-01-25T20:20:02.667Z,15.10
2018-01-25T20:22:31.049Z,16.40
2018-01-25T20:24:59.511Z,18.60
2018-01-25T20:27:28.452Z,18.00
2018-01-25T20:29:57.133Z,17.97
2018-01-25T20:32:25.707Z,21.20
2018-01-25T20:34:54.404Z,24.93
2018-01-25T20:37:23.167Z,25.00
2018-01-25T20:39:51.812Z,25.57
2018-01-25T20:42:20.926Z,20.50
2018-01-25T20:44:49.642Z,22.30
2018-01-25T20:47:18.533Z,25.60
2018-01-25T20:49:47.122Z,23.80
2018-01-25T20:52:15.719Z,26.73
2018-01-25T20:54:44.490Z,28.77
2018-01-25T20:57:13.189Z,27.83
2018-01-25T20:59:41.919Z,28.80
2018-01-25T21:02:10.443Z,27.97
2018-01-25T21:04:39.233Z,26.73
2018-01-25T21:07:07.934Z,28.47
2018-01-25T21:09:36.508Z,31.53
2018-01-25T21:12:05.103Z,31.23
2018-01-25T21:14:33.874Z,29.73
2018-01-25T21:17:02.474Z,28.10
2018-01-25T21:19:32.895Z,30.30
2018-01-25T21:22:01.561Z,29.57
2018-01-25T21:24:31.157Z,30.13
2018-01-25T21:26:59.766Z,30.27
2018-01-25T21:29:28.346Z,31.07
2018-01-25T21:31:56.984Z,31.00
2018-01-25T21:34:28.092Z,31.43
2018-01-25T21:36:56.502Z,37.43
2018-01-25T21:39:24.970Z,40.07
2018-01-25T21:41:53.420Z,35.37
2018-01-25T21:44:21.840Z,34.00
2018-01-25T21:46:50.233Z,37.40
2018-01-25T21:49:19.127Z,35.60
2018-01-25T21:51:47.920Z,34.67
2018-01-25T21:54:16.729Z,36.07
2018-01-25T21:56:45.144Z,37.00
2018-01-25T21:59:13.504Z,36.53
2018-01-25T22:01:41.980Z,38.30
2018-01-25T22:04:10.397Z,38.90
2018-01-25T22:06:39.206Z,38.57
2018-01-25T22:09:07.585Z,41.30
2018-01-25T22:11:35.989Z,40.30
2018-01-25T22:14:04.558Z,39.47
2018-01-25T22:16:33.139Z,41.27
2018-01-25T22:19:01.759Z,40.90
2018-01-25T22:21:30.367Z,40.80
2018-01-25T22:23:59.047Z,39.33
2018-01-25T22:26:27.913Z,41.87
2018-01-25T22:28:56.508Z,42.67
2018-01-25T22:31:25.213Z,39.43
2018-01-25T22:33:55.161Z,41.90
2018-01-25T22:36:23.800Z,43.30
2018-01-25T22:38:52.579Z,43.40
2018-01-25T22:41:21.162Z,44.00
2018-01-25T22:43:49.754Z,44.17
2018-01-25T22:46:18.337Z,45.60
2018-01-25T22:48:48.035Z,44.37
2018-01-25T22:51:16.805Z,44.70
2018-01-25T22:53:45.426Z,45.97
2018-01-25T22:56:13.994Z,49.77
2018-01-25T22:58:42.692Z,46.10
2018-01-25T23:01:11.676Z,45.53
2018-01-25T23:03:41.763Z,42.07
2018-01-25T23:06:10.604Z,43.63
2018-01-25T23:08:39.933Z,45.60
2018-01-25T23:11:09.329Z,44.90
2018-01-25T23:13:38.679Z,44.53
2018-01-25T23:16:07.460Z,45.67
2018-01-25T23:18:36.105Z,44.67
2018-01-25T23:21:05.393Z,47.07
2018-01-25T23:23:34.897Z,45.57
2018-01-25T23:26:04.188Z,46.97
2018-01-25T23:28:33.477Z,47.20
2018-01-25T23:31:02.837Z,45.80
2018-01-25T23:33:32.534Z,45.17
2018-01-25T23:36:02.137Z,47.80
2018-01-25T23:38:37.847Z,46.30
2018-01-25T23:41:06.523Z,44.00
2018-01-25T23:43:35.104Z,45.83
2018-01-25T23:46:05.206Z,47.17
2018-01-25T23:48:35.374Z,45.00
2018-01-25T23:51:04.150Z,44.97
2018-01-25T23:53:32.836Z,45.87
2018-01-25T23:56:02.688Z,45.70
2018-01-25T23:58:32.284Z,45.47
